createdAt,value
2023-01-28T00:00:30.980Z,2.07
2023-01-28T00:01:33.122Z,2.08
2023-01-28T00:02:36.604Z,2.06
2023-01-28T00:03:40.351Z,2.05
2023-01-28T00:04:42.263Z,2.04
2023-01-28T00:05:43.930Z,2.02
2023-01-28T00:06:45.802Z,2.00
2023-01-28T00:07:50.030Z,2.00
2023-01-28T00:08:51.948Z,1.97
2023-01-28T00:09:54.039Z,2.06
2023-01-28T00:10:58.995Z,2.04
2023-01-28T00:12:00.772Z,2.07
2023-01-28T00:13:02.511Z,2.01
2023-01-28T00:14:07.378Z,2.02
2023-01-28T00:15:10.962Z,1.99
2023-01-28T00:16:12.888Z,1.98
2023-01-28T00:17:15.472Z,1.93
2023-01-28T00:18:17.374Z,1.92
2023-01-28T00:19:19.464Z,1.91
2023-01-28T00:20:21.275Z,1.91
2023-01-28T00:21:22.955Z,1.88
2023-01-28T00:22:24.766Z,1.64
2023-01-28T00:23:28.835Z,1.91
2023-01-28T00:24:31.201Z,1.92
2023-01-28T00:25:32.826Z,1.97
2023-01-28T00:26:34.623Z,1.96
2023-01-28T00:27:36.364Z,1.93
2023-01-28T00:28:38.348Z,1.90
2023-01-28T00:29:40.178Z,1.92
2023-01-28T00:30:41.962Z,1.91
2023-01-28T00:31:43.835Z,1.91
2023-01-28T00:32:45.644Z,1.91
2023-01-28T00:33:49.462Z,1.91
2023-01-28T00:34:51.416Z,1.89
2023-01-28T00:36:01.081Z,1.91
2023-01-28T00:37:02.885Z,1.97
2023-01-28T00:38:05.040Z,1.97
2023-01-28T00:39:06.764Z,2.04
2023-01-28T00:40:10.072Z,2.00
2023-01-28T00:41:14.460Z,2.04
2023-01-28T00:42:16.690Z,1.99
2023-01-28T00:43:18.564Z,2.01
2023-01-28T00:44:20.917Z,2.03
2023-01-28T00:45:23.672Z,2.00
2023-01-28T00:46:27.529Z,2.03
2023-01-28T00:47:29.191Z,2.00
2023-01-28T00:48:31.023Z,1.98
2023-01-28T00:49:32.694Z,1.98
2023-01-28T00:50:34.360Z,1.96
2023-01-28T00:51:36.167Z,1.92
2023-01-28T00:52:37.889Z,2.00
2023-01-28T00:53:40.669Z,1.98
2023-01-28T00:54:42.636Z,1.94
2023-01-28T00:55:44.300Z,1.96
2023-01-28T00:56:46.335Z,1.98
2023-01-28T00:57:48.905Z,1.66
2023-01-28T00:58:51.686Z,1.96
2023-01-28T00:59:53.488Z,2.02
2023-01-28T01:00:55.317Z,2.04
2023-01-28T01:02:12.369Z,2.02
2023-01-28T01:03:14.529Z,1.99
2023-01-28T01:04:26.440Z,2.00
2023-01-28T01:05:29.736Z,1.99
2023-01-28T01:06:39.955Z,1.85
2023-01-28T01:07:41.902Z,1.95
2023-01-28T01:08:51.130Z,1.86
2023-01-28T01:09:52.746Z,1.91
2023-01-28T01:10:59.054Z,1.91
2023-01-28T01:12:00.954Z,1.89
2023-01-28T01:13:02.753Z,1.90
2023-01-28T01:14:07.169Z,1.89
2023-01-28T01:15:11.172Z,1.88
2023-01-28T01:16:18.121Z,1.88
2023-01-28T01:17:21.791Z,1.87
2023-01-28T01:18:23.527Z,1.93
2023-01-28T01:19:26.656Z,1.94
2023-01-28T01:20:33.423Z,1.96
2023-01-28T01:21:35.217Z,1.96
2023-01-28T01:22:37.319Z,1.95
2023-01-28T01:23:39.454Z,1.95
2023-01-28T01:24:41.572Z,1.95
2023-01-28T01:25:43.364Z,1.95
2023-01-28T01:26:45.144Z,1.93
2023-01-28T01:27:49.930Z,1.93
2023-01-28T01:28:52.740Z,1.91
2023-01-28T01:29:55.585Z,1.93
2023-01-28T01:31:13.941Z,2.00
2023-01-28T01:32:15.730Z,2.00
2023-01-28T01:33:18.586Z,2.02
2023-01-28T01:34:20.650Z,2.03
2023-01-28T01:35:22.426Z,2.02
2023-01-28T01:36:24.148Z,2.00
2023-01-28T01:37:26.572Z,2.00
2023-01-28T01:38:29.492Z,2.04
2023-01-28T01:39:31.169Z,2.01
2023-01-28T01:40:32.859Z,1.99
2023-01-28T01:41:34.604Z,1.98
2023-01-28T01:42:36.458Z,1.98
2023-01-28T01:44:05.630Z,2.00
2023-01-28T01:45:15.106Z,2.00
2023-01-28T01:46:26.113Z,1.98
2023-01-28T01:47:31.271Z,1.97
2023-01-28T01:48:35.474Z,1.95
2023-01-28T01:49:37.372Z,1.95
2023-01-28T01:50:40.924Z,1.93
2023-01-28T01:51:44.218Z,1.91
2023-01-28T01:52:49.107Z,1.90
2023-01-28T01:53:54.640Z,1.91
2023-01-28T01:54:59.826Z,1.91
2023-01-28T01:56:05.118Z,1.75
2023-01-28T01:57:10.569Z,1.91
2023-01-28T01:58:16.091Z,1.96
2023-01-28T01:59:27.289Z,1.95
2023-01-28T02:00:29.133Z,1.96
2023-01-28T02:01:32.685Z,1.97
2023-01-28T02:02:45.448Z,1.97
2023-01-28T02:03:56.928Z,1.99
2023-01-28T02:04:58.657Z,1.99
2023-01-28T02:06:00.667Z,1.99
2023-01-28T02:07:02.745Z,1.99
2023-01-28T02:08:23.473Z,1.99
2023-01-28T02:09:27.480Z,1.98
2023-01-28T02:10:29.471Z,1.81
2023-01-28T02:11:34.451Z,1.96
2023-01-28T02:12:47.558Z,1.97
2023-01-28T02:13:52.464Z,1.95
2023-01-28T02:15:01.683Z,1.96
2023-01-28T02:16:04.829Z,1.94
2023-01-28T02:17:07.299Z,1.97
2023-01-28T02:18:09.871Z,2.00
2023-01-28T02:19:12.661Z,1.95
2023-01-28T02:20:36.570Z,1.99
2023-01-28T02:21:41.409Z,1.98
2023-01-28T02:23:05.058Z,1.96
2023-01-28T02:24:40.719Z,1.95
2023-01-28T02:26:19.569Z,1.96
2023-01-28T02:27:36.710Z,1.93
2023-01-28T02:28:57.964Z,1.94
2023-01-28T02:30:03.773Z,1.93
2023-01-28T02:31:27.745Z,1.95
2023-01-28T02:32:46.275Z,1.92
2023-01-28T02:34:00.273Z,1.82
2023-01-28T02:35:12.505Z,1.91
2023-01-28T02:36:24.452Z,1.89
2023-01-28T02:37:41.489Z,1.89
2023-01-28T02:38:48.749Z,1.89
2023-01-28T02:40:00.094Z,1.87
2023-01-28T02:41:07.090Z,1.90
2023-01-28T02:42:18.375Z,1.90
2023-01-28T02:43:35.348Z,1.89
2023-01-28T02:44:37.074Z,1.91
2023-01-28T02:45:57.361Z,1.88
2023-01-28T02:47:18.010Z,1.92
2023-01-28T02:48:23.176Z,1.94
2023-01-28T02:49:47.130Z,2.00
2023-01-28T02:51:01.021Z,1.99
2023-01-28T02:52:49.109Z,1.99
2023-01-28T02:54:00.381Z,1.99
2023-01-28T02:55:14.422Z,1.98
2023-01-28T02:56:29.459Z,1.97
2023-01-28T02:58:18.443Z,2.02
2023-01-28T02:59:45.167Z,1.99
2023-01-28T03:00:56.143Z,1.97
2023-01-28T03:02:09.107Z,1.97
2023-01-28T03:03:38.634Z,1.94
2023-01-28T03:05:02.011Z,1.98
2023-01-28T03:06:10.020Z,1.98
2023-01-28T03:07:15.000Z,1.97
2023-01-28T03:08:36.248Z,1.96
2023-01-28T03:09:42.369Z,1.88
2023-01-28T03:10:44.130Z,1.96
2023-01-28T03:12:18.642Z,1.96
2023-01-28T03:13:38.914Z,1.92
2023-01-28T03:15:01.257Z,1.94
2023-01-28T03:16:22.399Z,1.93
2023-01-28T03:18:10.260Z,1.94
2023-01-28T03:19:32.342Z,1.93
2023-01-28T03:21:15.728Z,1.96
2023-01-28T03:22:36.555Z,1.98
2023-01-28T03:24:06.803Z,1.99
2023-01-28T03:25:32.322Z,1.97
2023-01-28T03:27:02.452Z,2.02
2023-01-28T03:28:28.080Z,2.07
2023-01-28T03:29:50.733Z,2.03
2023-01-28T03:31:36.383Z,2.06
2023-01-28T03:32:59.050Z,2.05
2023-01-28T03:34:20.963Z,2.01
2023-01-28T03:35:43.048Z,2.06
2023-01-28T03:36:56.968Z,2.07
2023-01-28T03:38:00.375Z,2.06
2023-01-28T03:39:02.252Z,2.06
2023-01-28T03:40:06.947Z,2.05
2023-01-28T03:41:11.228Z,2.06
2023-01-28T03:42:14.987Z,2.11
2023-01-28T03:43:16.673Z,2.14
2023-01-28T03:44:36.895Z,2.13
2023-01-28T03:45:39.451Z,2.16
2023-01-28T03:46:42.654Z,2.14
2023-01-28T03:47:44.820Z,2.01
2023-01-28T03:48:46.475Z,2.16
2023-01-28T03:49:50.725Z,2.20
2023-01-28T03:50:54.741Z,2.23
2023-01-28T03:51:56.531Z,2.29
2023-01-28T03:53:14.909Z,2.28
2023-01-28T03:54:17.983Z,2.23
2023-01-28T03:55:19.963Z,2.20
2023-01-28T03:56:24.587Z,2.20
2023-01-28T03:57:27.802Z,2.19
2023-01-28T03:58:56.645Z,2.16
2023-01-28T03:59:58.554Z,2.16
2023-01-28T04:01:00.223Z,1.81
2023-01-28T04:02:03.495Z,2.12
2023-01-28T04:03:16.415Z,2.10
2023-01-28T04:04:24.562Z,1.89
2023-01-28T04:05:26.535Z,2.10
2023-01-28T04:06:29.026Z,2.10
2023-01-28T04:07:31.363Z,2.11
2023-01-28T04:08:34.045Z,2.11
2023-01-28T04:09:36.148Z,2.11
2023-01-28T04:10:39.731Z,2.10
2023-01-28T04:11:41.552Z,2.07
2023-01-28T04:12:44.295Z,1.93
2023-01-28T04:13:49.106Z,2.07
2023-01-28T04:14:51.033Z,2.07
2023-01-28T04:15:52.946Z,2.02
2023-01-28T04:16:57.785Z,2.09
2023-01-28T04:18:00.976Z,2.06
2023-01-28T04:19:03.045Z,2.06
2023-01-28T04:20:06.674Z,2.06
2023-01-28T04:21:09.146Z,2.06
2023-01-28T04:22:12.180Z,2.07
2023-01-28T04:23:13.849Z,2.05
2023-01-28T04:24:16.803Z,1.98
2023-01-28T04:25:18.719Z,2.04
2023-01-28T04:26:20.382Z,2.04
2023-01-28T04:27:22.115Z,2.04
2023-01-28T04:28:24.293Z,2.05
2023-01-28T04:29:26.486Z,2.05
2023-01-28T04:30:28.628Z,2.08
2023-01-28T04:31:30.668Z,2.05
2023-01-28T04:32:32.514Z,2.02
2023-01-28T04:33:34.217Z,2.04
2023-01-28T04:34:35.997Z,2.09
2023-01-28T04:35:37.934Z,2.04
2023-01-28T04:36:39.983Z,2.06
2023-01-28T04:37:42.686Z,2.06
2023-01-28T04:38:47.383Z,1.99
2023-01-28T04:39:49.121Z,2.04
2023-01-28T04:40:54.400Z,2.00
2023-01-28T04:41:56.941Z,2.01
2023-01-28T04:42:59.081Z,2.00
2023-01-28T04:44:00.794Z,1.92
2023-01-28T04:45:02.682Z,1.94
2023-01-28T04:46:04.551Z,1.97
2023-01-28T04:47:06.278Z,1.94
2023-01-28T04:48:07.985Z,1.86
2023-01-28T04:49:09.735Z,1.95
2023-01-28T04:50:11.662Z,1.94
2023-01-28T04:51:13.361Z,1.93
2023-01-28T04:52:15.461Z,1.93
2023-01-28T04:53:20.130Z,1.92
2023-01-28T04:54:22.208Z,1.94
2023-01-28T04:55:24.808Z,1.93
2023-01-28T04:56:27.444Z,1.91
2023-01-28T04:57:29.378Z,1.92
2023-01-28T04:58:31.230Z,1.95
2023-01-28T04:59:32.874Z,1.95
2023-01-28T05:00:35.085Z,1.95
2023-01-28T05:01:37.090Z,1.95
2023-01-28T05:02:38.930Z,1.95
2023-01-28T05:03:40.619Z,1.96
2023-01-28T05:04:42.472Z,1.97
2023-01-28T05:05:44.341Z,1.97
2023-01-28T05:06:46.249Z,1.96
2023-01-28T05:07:55.691Z,1.91
2023-01-28T05:08:58.168Z,1.88
2023-01-28T05:09:59.936Z,1.96
2023-01-28T05:11:01.625Z,1.97
2023-01-28T05:12:03.639Z,1.97
2023-01-28T05:13:05.313Z,1.97
2023-01-28T05:14:07.158Z,1.97
2023-01-28T05:15:09.712Z,1.95
2023-01-28T05:16:12.054Z,1.95
2023-01-28T05:17:14.115Z,1.85
2023-01-28T05:18:16.060Z,1.96
2023-01-28T05:19:17.817Z,1.96
2023-01-28T05:20:20.148Z,1.91
2023-01-28T05:21:21.944Z,1.96
2023-01-28T05:22:23.637Z,1.95
2023-01-28T05:23:25.355Z,1.96
2023-01-28T05:24:27.111Z,1.96
2023-01-28T05:25:29.124Z,1.95
2023-01-28T05:26:31.081Z,1.96
2023-01-28T05:27:33.653Z,1.95
2023-01-28T05:28:35.772Z,1.97
2023-01-28T05:29:37.610Z,2.01
2023-01-28T05:30:39.772Z,2.01
2023-01-28T05:31:41.770Z,2.00
2023-01-28T05:32:43.754Z,1.99
2023-01-28T05:33:46.088Z,2.01
2023-01-28T05:34:47.861Z,1.97
2023-01-28T05:35:49.830Z,2.01
2023-01-28T05:36:51.573Z,1.90
2023-01-28T05:37:53.406Z,2.02
2023-01-28T05:38:55.161Z,2.00
2023-01-28T05:39:56.886Z,2.00
2023-01-28T05:40:58.754Z,1.91
2023-01-28T05:42:00.412Z,2.00
2023-01-28T05:43:02.132Z,2.01
2023-01-28T05:44:03.819Z,2.00
2023-01-28T05:45:06.020Z,2.01
2023-01-28T05:46:07.813Z,1.99
2023-01-28T05:47:09.856Z,1.99
2023-01-28T05:48:11.811Z,1.98
2023-01-28T05:49:13.985Z,1.97
2023-01-28T05:50:16.676Z,1.92
2023-01-28T05:51:19.135Z,1.96
2023-01-28T05:52:20.886Z,1.93
2023-01-28T05:53:22.700Z,1.94
2023-01-28T05:54:24.624Z,1.96
2023-01-28T05:55:26.758Z,1.95
2023-01-28T05:56:28.452Z,1.97
2023-01-28T05:57:30.225Z,1.98
2023-01-28T05:58:32.366Z,1.97
2023-01-28T05:59:34.111Z,1.98
2023-01-28T06:00:35.934Z,1.99
2023-01-28T06:01:37.884Z,2.00
2023-01-28T06:02:39.944Z,1.98
2023-01-28T06:03:42.769Z,1.98
2023-01-28T06:04:44.798Z,1.98
2023-01-28T06:05:46.628Z,1.73
2023-01-28T06:06:48.484Z,2.07
2023-01-28T06:07:50.761Z,2.03
2023-01-28T06:08:53.750Z,2.05
2023-01-28T06:09:55.580Z,2.03
2023-01-28T06:10:57.328Z,2.01
2023-01-28T06:12:00.193Z,2.02
2023-01-28T06:13:02.547Z,1.91
2023-01-28T06:14:06.832Z,2.01
2023-01-28T06:15:09.766Z,2.02
2023-01-28T06:16:12.670Z,2.02
2023-01-28T06:17:14.595Z,2.01
2023-01-28T06:18:17.049Z,2.01
2023-01-28T06:19:18.860Z,2.01
2023-01-28T06:20:20.928Z,2.04
2023-01-28T06:21:22.667Z,2.03
2023-01-28T06:22:24.590Z,2.03
2023-01-28T06:23:26.735Z,2.03
2023-01-28T06:24:28.572Z,2.00
2023-01-28T06:25:30.368Z,2.01
2023-01-28T06:26:32.701Z,2.01
2023-01-28T06:27:34.752Z,2.00
2023-01-28T06:28:36.409Z,1.84
2023-01-28T06:29:38.384Z,2.00
2023-01-28T06:30:40.669Z,2.04
2023-01-28T06:31:44.280Z,2.06
2023-01-28T06:32:47.170Z,1.97
2023-01-28T06:33:50.340Z,2.03
2023-01-28T06:34:52.571Z,2.06
2023-01-28T06:35:54.679Z,2.06
2023-01-28T06:36:56.365Z,2.02
2023-01-28T06:37:58.543Z,2.05
2023-01-28T06:39:00.346Z,2.03
2023-01-28T06:40:03.144Z,1.78
2023-01-28T06:41:05.069Z,2.00
2023-01-28T06:42:07.072Z,1.98
2023-01-28T06:43:08.795Z,1.97
2023-01-28T06:44:10.512Z,1.95
2023-01-28T06:45:12.315Z,1.94
2023-01-28T06:46:14.160Z,1.94
2023-01-28T06:47:16.181Z,1.92
2023-01-28T06:48:18.030Z,1.90
2023-01-28T06:49:20.978Z,1.91
2023-01-28T06:50:22.781Z,1.91
2023-01-28T06:51:24.632Z,1.88
2023-01-28T06:52:26.576Z,1.92
2023-01-28T06:53:28.591Z,1.91
2023-01-28T06:54:30.982Z,1.55
2023-01-28T06:55:32.755Z,1.81
2023-01-28T06:56:34.826Z,1.89
2023-01-28T06:57:40.550Z,1.88
2023-01-28T06:58:42.371Z,1.84
2023-01-28T06:59:44.364Z,1.86
2023-01-28T07:00:46.168Z,1.86
2023-01-28T07:01:47.947Z,1.85
2023-01-28T07:02:49.757Z,1.84
2023-01-28T07:03:51.743Z,1.82
2023-01-28T07:04:53.542Z,1.82
2023-01-28T07:05:55.837Z,1.79
2023-01-28T07:06:58.197Z,1.79
2023-01-28T07:08:02.344Z,1.82
2023-01-28T07:09:04.159Z,1.81
2023-01-28T07:10:08.128Z,1.80
2023-01-28T07:11:09.899Z,1.80
2023-01-28T07:12:11.882Z,1.78
2023-01-28T07:13:13.651Z,1.82
2023-01-28T07:14:15.397Z,1.87
2023-01-28T07:15:17.527Z,1.87
2023-01-28T07:16:19.435Z,1.89
2023-01-28T07:17:21.471Z,1.88
2023-01-28T07:18:23.669Z,1.90
2023-01-28T07:19:25.980Z,1.92
2023-01-28T07:20:28.034Z,1.92
2023-01-28T07:21:29.995Z,1.95
2023-01-28T07:22:32.054Z,1.96
2023-01-28T07:23:33.802Z,1.96
2023-01-28T07:24:36.077Z,2.00
2023-01-28T07:25:37.881Z,2.00
2023-01-28T07:26:39.721Z,2.02
2023-01-28T07:27:51.217Z,2.04
2023-01-28T07:28:53.017Z,1.72
2023-01-28T07:29:54.863Z,2.10
2023-01-28T07:30:57.669Z,2.11
2023-01-28T07:31:59.511Z,2.11
2023-01-28T07:33:01.577Z,2.12
2023-01-28T07:34:03.354Z,2.15
2023-01-28T07:35:05.429Z,2.19
2023-01-28T07:36:07.527Z,2.24
2023-01-28T07:37:10.041Z,2.27
2023-01-28T07:38:13.170Z,2.27
2023-01-28T07:39:15.450Z,2.22
2023-01-28T07:40:17.630Z,2.29
2023-01-28T07:41:19.444Z,2.32
2023-01-28T07:42:21.167Z,2.31
2023-01-28T07:43:23.019Z,2.30
2023-01-28T07:44:25.357Z,2.32
2023-01-28T07:45:28.804Z,2.36
2023-01-28T07:46:30.539Z,2.34
2023-01-28T07:47:33.050Z,2.37
2023-01-28T07:48:36.070Z,2.40
2023-01-28T07:49:39.843Z,2.44
2023-01-28T07:50:42.123Z,2.42
2023-01-28T07:51:46.592Z,2.45
2023-01-28T07:52:48.459Z,2.42
2023-01-28T07:53:50.408Z,2.31
2023-01-28T07:54:52.326Z,2.46
2023-01-28T07:56:00.740Z,2.44
2023-01-28T07:57:02.720Z,2.44
2023-01-28T07:58:06.980Z,2.44
2023-01-28T07:59:08.923Z,2.52
2023-01-28T08:00:11.477Z,2.48
2023-01-28T08:01:14.474Z,2.52
2023-01-28T08:02:17.746Z,2.56
2023-01-28T08:03:19.877Z,2.64
2023-01-28T08:04:22.162Z,2.64
2023-01-28T08:05:27.355Z,2.62
2023-01-28T08:06:29.653Z,2.63
2023-01-28T08:07:31.422Z,2.63
2023-01-28T08:08:33.142Z,2.64
2023-01-28T08:09:35.032Z,2.64
2023-01-28T08:10:38.343Z,2.68
2023-01-28T08:11:40.378Z,2.72
2023-01-28T08:12:42.443Z,2.77
2023-01-28T08:13:44.370Z,2.79
2023-01-28T08:14:46.482Z,2.61
2023-01-28T08:15:48.531Z,2.75
2023-01-28T08:16:50.422Z,2.78
2023-01-28T08:17:56.230Z,2.78
2023-01-28T08:18:58.721Z,2.81
2023-01-28T08:20:00.446Z,2.83
2023-01-28T08:21:02.271Z,2.83
2023-01-28T08:22:04.045Z,2.87
2023-01-28T08:23:12.724Z,2.94
2023-01-28T08:24:14.501Z,2.94
2023-01-28T08:25:16.651Z,2.95
2023-01-28T08:26:18.392Z,2.96
2023-01-28T08:27:20.208Z,2.98
2023-01-28T08:28:22.597Z,3.06
2023-01-28T08:29:24.551Z,3.12
2023-01-28T08:30:26.668Z,3.10
2023-01-28T08:31:29.641Z,3.23
2023-01-28T08:32:31.584Z,3.27
2023-01-28T08:33:33.285Z,3.30
2023-01-28T08:34:35.318Z,3.29
2023-01-28T08:35:37.602Z,3.31
2023-01-28T08:36:39.493Z,3.30
2023-01-28T08:37:41.267Z,3.33
2023-01-28T08:38:43.595Z,3.42
2023-01-28T08:39:46.541Z,3.45
2023-01-28T08:40:50.690Z,3.43
2023-01-28T08:41:52.404Z,3.04
2023-01-28T08:42:55.147Z,3.41
2023-01-28T08:43:57.536Z,3.43
2023-01-28T08:44:59.575Z,3.49
2023-01-28T08:46:01.404Z,3.51
2023-01-28T08:47:03.131Z,3.37
2023-01-28T08:48:07.970Z,3.52
2023-01-28T08:49:09.785Z,3.57
2023-01-28T08:50:11.686Z,3.60
2023-01-28T08:51:13.409Z,3.72
2023-01-28T08:52:15.214Z,3.76
2023-01-28T08:53:19.626Z,3.80
2023-01-28T08:54:21.874Z,3.90
2023-01-28T08:55:24.494Z,3.95
2023-01-28T08:56:26.488Z,3.98
2023-01-28T08:57:28.328Z,3.96
2023-01-28T08:58:30.106Z,3.98
2023-01-28T08:59:32.061Z,3.94
2023-01-28T09:00:35.740Z,3.83
2023-01-28T09:01:37.982Z,3.85
2023-01-28T09:02:39.956Z,3.85
2023-01-28T09:03:41.851Z,3.57
2023-01-28T09:04:43.776Z,3.91
2023-01-28T09:05:45.759Z,3.83
2023-01-28T09:06:47.552Z,3.80
2023-01-28T09:07:50.635Z,3.74
2023-01-28T09:08:52.442Z,3.65
2023-01-28T09:09:54.397Z,3.59
2023-01-28T09:10:57.712Z,3.58
2023-01-28T09:11:59.656Z,3.55
2023-01-28T09:13:13.429Z,3.53
2023-01-28T09:14:15.142Z,3.45
2023-01-28T09:15:18.134Z,3.27
2023-01-28T09:16:22.459Z,3.00
2023-01-28T09:17:24.661Z,3.38
2023-01-28T09:18:29.927Z,3.41
2023-01-28T09:19:32.929Z,3.33
2023-01-28T09:20:34.896Z,3.36
2023-01-28T09:21:39.414Z,3.29
2023-01-28T09:22:41.706Z,3.24
2023-01-28T09:23:43.661Z,3.16
2023-01-28T09:24:45.487Z,3.14
2023-01-28T09:25:47.116Z,3.11
2023-01-28T09:26:49.596Z,3.09
2023-01-28T09:27:51.405Z,3.09
2023-01-28T09:28:53.344Z,3.12
2023-01-28T09:29:54.994Z,3.11
2023-01-28T09:31:09.140Z,3.16
2023-01-28T09:32:10.991Z,3.14
2023-01-28T09:33:12.757Z,3.15
2023-01-28T09:34:14.762Z,3.28
2023-01-28T09:35:18.028Z,3.28
2023-01-28T09:36:21.144Z,3.20
2023-01-28T09:37:22.841Z,3.35
2023-01-28T09:38:24.562Z,3.42
2023-01-28T09:39:28.570Z,3.40
2023-01-28T09:40:36.034Z,3.45
2023-01-28T09:42:15.965Z,3.52
2023-01-28T09:43:27.160Z,3.53
2023-01-28T09:44:49.661Z,3.50
2023-01-28T09:45:55.623Z,3.53
2023-01-28T09:47:05.840Z,3.61
2023-01-28T09:48:14.863Z,3.64
2023-01-28T09:49:32.720Z,3.63
2023-01-28T09:50:40.824Z,3.64
2023-01-28T09:51:47.973Z,3.62
2023-01-28T09:52:53.513Z,3.61
2023-01-28T09:54:00.640Z,3.54
2023-01-28T09:55:33.997Z,3.51
2023-01-28T09:56:46.312Z,3.56
2023-01-28T09:57:52.644Z,3.54
2023-01-28T09:58:55.155Z,3.51
2023-01-28T09:59:57.664Z,3.37
2023-01-28T10:01:41.265Z,3.43
2023-01-28T10:02:45.839Z,3.43
2023-01-28T10:04:12.220Z,3.37
2023-01-28T10:05:33.917Z,3.39
2023-01-28T10:06:57.485Z,3.40
2023-01-28T10:08:18.334Z,3.52
2023-01-28T10:09:48.911Z,3.51
2023-01-28T10:11:17.043Z,3.55
2023-01-28T10:12:37.925Z,3.53
2023-01-28T10:13:50.777Z,3.56
2023-01-28T10:14:58.995Z,3.57
2023-01-28T10:16:22.945Z,3.49
2023-01-28T10:17:37.178Z,3.49
2023-01-28T10:18:54.892Z,3.57
2023-01-28T10:20:22.873Z,3.55
2023-01-28T10:21:34.671Z,3.59
2023-01-28T10:22:44.608Z,3.71
2023-01-28T10:23:49.109Z,3.76
2023-01-28T10:25:03.793Z,3.73
2023-01-28T10:26:17.136Z,3.73
2023-01-28T10:27:24.372Z,3.71
2023-01-28T10:28:29.599Z,3.66
2023-01-28T10:29:35.064Z,3.68
2023-01-28T10:30:40.760Z,3.63
2023-01-28T10:31:52.232Z,3.49
2023-01-28T10:32:57.079Z,3.50
2023-01-28T10:33:59.676Z,3.50
2023-01-28T10:35:03.121Z,3.42
2023-01-28T10:36:05.305Z,3.55
2023-01-28T10:37:09.757Z,3.55
2023-01-28T10:38:16.289Z,3.55
2023-01-28T10:39:21.865Z,3.55
2023-01-28T10:40:23.594Z,3.59
2023-01-28T10:41:26.888Z,3.63
2023-01-28T10:42:36.562Z,3.65
2023-01-28T10:43:41.886Z,3.58
2023-01-28T10:44:47.479Z,3.54
2023-01-28T10:45:59.797Z,3.52
2023-01-28T10:47:14.632Z,3.17
2023-01-28T10:48:30.370Z,3.44
2023-01-28T10:49:39.478Z,3.44
2023-01-28T10:51:01.947Z,3.46
2023-01-28T10:52:11.309Z,3.42
2023-01-28T10:53:12.971Z,3.42
2023-01-28T10:54:22.266Z,3.42
2023-01-28T10:55:44.815Z,3.37
2023-01-28T10:56:49.340Z,3.45
2023-01-28T10:57:51.856Z,3.46
2023-01-28T10:59:19.374Z,3.55
2023-01-28T11:00:25.784Z,3.49
2023-01-28T11:01:50.994Z,3.22
2023-01-28T11:02:55.176Z,3.25
2023-01-28T11:03:58.745Z,3.52
2023-01-28T11:05:27.832Z,3.49
2023-01-28T11:06:30.283Z,3.51
2023-01-28T11:07:34.635Z,3.51
2023-01-28T11:08:44.491Z,3.49
2023-01-28T11:11:15.242Z,3.46
2023-01-28T11:12:26.631Z,3.48
2023-01-28T11:13:30.447Z,3.50
2023-01-28T11:14:32.207Z,3.48
2023-01-28T11:15:34.209Z,3.20
2023-01-28T11:16:40.262Z,3.46
2023-01-28T11:17:57.735Z,3.21
2023-01-28T11:19:08.159Z,2.80
2023-01-28T11:20:21.039Z,3.38
2023-01-28T11:21:25.572Z,2.59
2023-01-28T11:22:30.211Z,3.48
2023-01-28T11:23:35.977Z,3.26
2023-01-28T11:24:37.669Z,2.33
2023-01-28T11:25:39.518Z,2.47
2023-01-28T11:26:45.779Z,3.15
2023-01-28T11:27:52.344Z,3.16
2023-01-28T11:28:55.106Z,2.56
2023-01-28T11:30:03.562Z,3.34
2023-01-28T11:31:05.656Z,2.57
2023-01-28T11:32:17.901Z,2.89
2023-01-28T11:33:28.903Z,2.94
2023-01-28T11:34:34.859Z,3.17
2023-01-28T11:35:36.560Z,2.78
2023-01-28T11:36:38.091Z,3.17
2023-01-28T11:37:48.586Z,3.18
2023-01-28T11:38:57.242Z,3.37
2023-01-28T11:40:21.151Z,2.91
2023-01-28T11:41:29.997Z,3.40
2023-01-28T11:42:32.801Z,3.29
2023-01-28T11:43:34.590Z,3.08
2023-01-28T11:44:36.354Z,2.78
2023-01-28T11:45:49.773Z,3.45
2023-01-28T11:47:32.788Z,3.42
2023-01-28T11:48:49.487Z,2.95
2023-01-28T11:50:00.189Z,3.38
2023-01-28T11:51:27.544Z,3.08
2023-01-28T11:53:05.884Z,3.41
2023-01-28T11:54:24.291Z,3.42
2023-01-28T11:55:39.331Z,2.76
2023-01-28T11:57:17.687Z,3.15
2023-01-28T11:58:40.094Z,3.36
2023-01-28T11:59:41.683Z,3.36
2023-01-28T12:00:51.963Z,3.38
2023-01-28T12:02:21.502Z,3.37
2023-01-28T12:03:48.283Z,3.10
2023-01-28T12:05:16.045Z,3.48
2023-01-28T12:06:26.986Z,3.41
2023-01-28T12:07:43.179Z,3.27
2023-01-28T12:09:07.530Z,3.50
2023-01-28T12:10:44.503Z,3.51
2023-01-28T12:12:12.085Z,3.52
2023-01-28T12:13:45.096Z,3.73
2023-01-28T12:15:01.998Z,3.75
2023-01-28T12:16:22.435Z,3.88
2023-01-28T12:17:26.611Z,3.92
2023-01-28T12:19:08.163Z,3.98
2023-01-28T12:20:36.157Z,3.98
2023-01-28T12:22:01.849Z,4.03
2023-01-28T12:23:12.345Z,4.04
2023-01-28T12:24:26.307Z,3.62
2023-01-28T12:25:48.015Z,3.85
2023-01-28T12:26:57.060Z,3.83
2023-01-28T12:28:36.352Z,3.77
2023-01-28T12:29:43.785Z,3.73
2023-01-28T12:31:07.091Z,2.49
2023-01-28T12:32:31.753Z,3.52
2023-01-28T12:33:46.085Z,2.82
2023-01-28T12:35:06.973Z,3.44
2023-01-28T12:36:30.556Z,2.95
2023-01-28T12:37:52.824Z,2.63
2023-01-28T12:39:33.272Z,3.45
2023-01-28T12:40:44.158Z,3.41
2023-01-28T12:42:04.433Z,3.08
2023-01-28T12:43:21.571Z,3.31
2023-01-28T12:44:34.946Z,3.30
2023-01-28T12:45:45.499Z,3.18
2023-01-28T12:47:09.664Z,2.77
2023-01-28T12:48:28.222Z,2.99
2023-01-28T12:49:35.719Z,3.13
2023-01-28T12:50:45.194Z,2.85
2023-01-28T12:51:57.545Z,2.87
2023-01-28T12:53:20.147Z,2.66
2023-01-28T12:54:39.562Z,3.31
2023-01-28T12:55:44.451Z,2.72
2023-01-28T12:56:52.787Z,3.24
2023-01-28T12:57:58.674Z,2.82
2023-01-28T12:59:31.380Z,3.31
2023-01-28T13:00:36.619Z,3.14
2023-01-28T13:01:47.766Z,3.28
2023-01-28T13:03:20.292Z,3.28
2023-01-28T13:04:35.122Z,3.11
2023-01-28T13:05:44.067Z,3.09
2023-01-28T13:06:57.567Z,3.20
2023-01-28T13:08:13.884Z,3.28
2023-01-28T13:09:19.647Z,3.39
2023-01-28T13:10:29.091Z,3.42
2023-01-28T13:11:36.213Z,3.24
2023-01-28T13:12:41.007Z,3.38
2023-01-28T13:13:45.766Z,3.47
2023-01-28T13:14:48.764Z,2.84
2023-01-28T13:15:50.551Z,2.50
2023-01-28T13:16:52.208Z,3.22
2023-01-28T13:17:57.884Z,2.26
2023-01-28T13:19:17.851Z,3.33
2023-01-28T13:20:59.260Z,3.39
2023-01-28T13:22:11.527Z,3.40
2023-01-28T13:23:39.700Z,3.26
2023-01-28T13:24:41.375Z,3.16
2023-01-28T13:25:49.825Z,2.72
2023-01-28T13:26:57.742Z,3.44
2023-01-28T13:28:05.938Z,3.33
2023-01-28T13:29:21.198Z,3.31
2023-01-28T13:30:31.391Z,3.30
2023-01-28T13:31:41.522Z,3.04
2023-01-28T13:32:43.273Z,3.04
2023-01-28T13:34:02.293Z,3.21
2023-01-28T13:35:07.125Z,3.19
2023-01-28T13:36:58.307Z,3.45
2023-01-28T13:38:08.301Z,3.20
2023-01-28T13:39:23.441Z,3.55
2023-01-28T13:40:28.989Z,3.12
2023-01-28T13:41:45.995Z,3.43
2023-01-28T13:43:17.360Z,3.36
2023-01-28T13:44:29.553Z,3.52
2023-01-28T13:45:32.326Z,3.53
2023-01-28T13:46:34.593Z,3.41
2023-01-28T13:47:37.918Z,2.79
2023-01-28T13:48:47.259Z,3.07
2023-01-28T13:49:58.002Z,3.54
2023-01-28T13:51:02.108Z,2.91
2023-01-28T13:52:17.832Z,3.14
2023-01-28T13:53:45.876Z,3.45
2023-01-28T13:54:55.895Z,3.57
2023-01-28T13:55:59.084Z,2.70
2023-01-28T13:57:00.845Z,3.63
2023-01-28T13:58:05.286Z,3.65
2023-01-28T13:59:24.701Z,3.76
2023-01-28T14:00:41.739Z,3.81
2023-01-28T14:02:06.708Z,3.50
2023-01-28T14:03:50.506Z,3.70
2023-01-28T14:05:14.222Z,3.69
2023-01-28T14:06:52.922Z,3.74
2023-01-28T14:08:09.922Z,3.50
2023-01-28T14:09:14.161Z,3.67
2023-01-28T14:10:38.869Z,3.83
2023-01-28T14:12:08.900Z,3.74
2023-01-28T14:13:28.888Z,3.74
2023-01-28T14:14:30.468Z,3.79
2023-01-28T14:16:06.522Z,3.75
2023-01-28T14:17:35.505Z,3.76
2023-01-28T14:18:42.784Z,3.81
2023-01-28T14:19:45.699Z,3.44
2023-01-28T14:20:47.831Z,2.90
2023-01-28T14:21:49.669Z,3.29
2023-01-28T14:22:54.365Z,3.67
2023-01-28T14:23:57.770Z,3.17
2023-01-28T14:25:01.298Z,3.20
2023-01-28T14:26:16.268Z,2.96
2023-01-28T14:27:41.678Z,3.40
2023-01-28T14:28:57.099Z,3.54
2023-01-28T14:30:28.736Z,3.54
2023-01-28T14:31:36.521Z,3.07
2023-01-28T14:32:47.421Z,3.43
2023-01-28T14:33:49.208Z,3.02
2023-01-28T14:34:51.000Z,3.45
2023-01-28T14:35:52.779Z,2.97
2023-01-28T14:36:57.896Z,3.21
2023-01-28T14:38:06.862Z,2.80
2023-01-28T14:39:17.835Z,3.16
2023-01-28T14:40:21.007Z,3.09
2023-01-28T14:41:26.394Z,3.04
2023-01-28T14:42:40.719Z,3.11
2023-01-28T14:43:42.438Z,2.83
2023-01-28T14:44:44.961Z,3.45
2023-01-28T14:46:05.913Z,3.45
2023-01-28T14:47:20.104Z,3.51
2023-01-28T14:48:25.658Z,2.92
2023-01-28T14:49:37.655Z,3.49
2023-01-28T14:50:57.947Z,3.52
2023-01-28T14:52:52.616Z,3.55
2023-01-28T14:54:04.985Z,3.37
2023-01-28T14:55:21.228Z,3.59
2023-01-28T14:56:41.622Z,3.55
2023-01-28T14:57:57.349Z,3.39
2023-01-28T14:59:31.480Z,3.39
2023-01-28T15:00:35.398Z,3.47
2023-01-28T15:01:45.000Z,3.13
2023-01-28T15:02:46.913Z,3.48
2023-01-28T15:03:48.873Z,3.38